Time;durP1;ratioP1;P1;durP2;ratioP2;P2;SDS_P1;SDS_P2;PMS_P1;PMS_P2;Temp;Humidity;BMP_temperature;BMP_pressure;BME280_temperature;BME280_humidity;BME280_pressure;Samples;Min_cycle;Max_cycle;Signal;HPM_P1;HPM_P2
2021/12/13 00:02:12;;;;;;;24.30;15.40;;;;;;;2.03;72.73;99885.66;5092928;28;20028;-51
2021/12/13 00:04:55;;;;;;;23.80;15.02;;;;;;;1.89;71.36;99880.72;5092947;28;20057;-49
2021/12/13 00:07:28;;;;;;;28.10;17.75;;;;;;;1.61;71.28;99864.69;5092791;28;20038;-48
2021/12/13 00:09:56;;;;;;;24.88;16.48;;;;;;;1.46;71.66;99868.38;5092832;28;20040;-49
2021/12/13 00:12:29;;;;;;;22.48;16.25;;;;;;;1.49;71.36;99870.72;5092744;28;20039;-48
2021/12/13 00:14:57;;;;;;;26.67;16.40;;;;;;;1.52;70.92;99876.50;5092687;28;20028;-49
2021/12/13 00:17:29;;;;;;;24.02;17.15;;;;;;;1.37;70.08;99868.13;5092635;28;20032;-49
2021/12/13 00:20:05;;;;;;;24.08;15.75;;;;;;;1.15;70.56;99863.69;5092576;28;20024;-48
2021/12/13 00:22:41;;;;;;;96.15;79.72;;;;;;;1.26;70.73;99869.84;5092612;28;20485;-49
2021/12/13 00:25:11;;;;;;;25.48;16.13;;;;;;;1.33;70.24;99879.63;5092555;28;20050;-49
2021/12/13 00:27:45;;;;;;;22.35;16.92;;;;;;;1.14;69.82;99874.94;5092274;28;20135;-48
2021/12/13 00:30:18;;;;;;;24.20;18.23;;;;;;;1.06;69.85;99866.09;5092492;28;20024;-49
2021/12/13 00:32:54;;;;;;;25.60;17.75;;;;;;;1.08;70.54;99870.22;5092265;28;20281;-49
2021/12/13 00:35:21;;;;;;;;;;;;;;;0.99;69.74;99874.28;5091541;28;20081;-49
2021/12/13 00:37:58;;;;;;;21.88;15.50;;;;;;;0.75;69.16;99870.88;5092293;28;19912;-49
2021/12/13 00:40:34;;;;;;;31.42;17.45;;;;;;;0.49;69.96;99873.50;5092365;28;20024;-48
2021/12/13 00:43:08;;;;;;;23.45;16.17;;;;;;;0.35;70.66;99868.47;5092358;28;20085;-48
2021/12/13 00:45:37;;;;;;;28.98;16.02;;;;;;;0.28;71.12;99869.81;5092276;28;20062;-48
2021/12/13 00:48:06;;;;;;;27.90;18.90;;;;;;;0.23;70.81;99864.97;5092133;28;20215;-48
2021/12/13 00:50:38;;;;;;;26.35;17.08;;;;;;;0.25;71.96;99864.88;5092182;28;20020;-48
2021/12/13 00:53:04;;;;;;;26.90;17.10;;;;;;;0.27;72.11;99871.59;5092119;28;20401;-48
2021/12/13 00:55:34;;;;;;;52.88;38.92;;;;;;;0.45;72.12;99869.50;5092086;28;20023;-49
2021/12/13 00:58:18;;;;;;;23.67;17.23;;;;;;;0.61;71.93;99864.09;5092020;28;20030;-48
2021/12/13 01:00:59;;;;;;;39.65;29.63;;;;;;;0.51;70.65;99863.09;5090666;28;20038;-49
2021/12/13 01:03:40;;;;;;;28.98;19.35;;;;;;;0.35;71.37;99871.06;5092052;28;20031;-49
2021/12/13 01:06:47;;;;;;;28.25;17.63;;;;;;;0.23;71.13;99877.06;5092032;28;20123;-48
2021/12/13 01:10:12;;;;;;;24.98;16.88;;;;;;;0.18;71.25;99873.03;5091494;28;20544;-48
2021/12/13 01:12:39;;;;;;;24.88;16.90;;;;;;;0.12;71.82;99860.56;5006926;28;20060;-49
2021/12/13 01:15:14;;;;;;;24.73;16.80;;;;;;;0.05;72.05;99861.88;5029476;28;20067;-48
2021/12/13 01:18:16;;;;;;;26.38;16.77;;;;;;;0.01;72.39;99859.63;5013066;28;20041;-48
2021/12/13 01:21:29;;;;;;;22.08;15.02;;;;;;;-0.07;72.64;99854.97;5029472;28;20041;-49
2021/12/13 01:24:11;;;;;;;24.42;16.85;;;;;;;-0.15;72.85;99846.94;5025081;28;20076;-49
2021/12/13 01:26:42;;;;;;;27.00;18.20;;;;;;;-0.17;72.72;99854.75;5029111;28;20061;-48
2021/12/13 01:29:20;;;;;;;27.38;18.70;;;;;;;-0.22;72.75;99846.53;5029440;28;20454;-49
2021/12/13 01:31:52;;;;;;;27.13;18.77;;;;;;;-0.21;73.44;99848.16;5029413;28;20510;-49
2021/12/13 01:34:21;;;;;;;26.85;17.80;;;;;;;-0.22;74.12;99862.81;5029391;28;20084;-49
2021/12/13 01:37:01;;;;;;;24.42;17.00;;;;;;;-0.15;74.33;99859.84;5029312;28;20048;-48
2021/12/13 01:39:29;;;;;;;22.90;16.55;;;;;;;-0.05;74.17;99861.69;5029324;28;20523;-47
2021/12/13 01:42:09;;;;;;;26.88;18.27;;;;;;;0.02;73.82;99862.13;5012637;28;20061;-48
2021/12/13 01:44:43;;;;;;;23.90;16.98;;;;;;;0.08;73.77;99859.13;5032283;28;20034;-48
2021/12/13 01:47:40;;;;;;;26.25;17.60;;;;;;;0.07;73.03;99861.78;5033360;28;20032;-48
2021/12/13 01:50:28;;;;;;;25.73;17.33;;;;;;;0.07;73.73;99852.28;5095533;28;20028;-49
2021/12/13 01:52:55;;;;;;;24.98;18.27;;;;;;;0.08;74.05;99842.78;5095462;28;20028;-49
2021/12/13 01:55:25;;;;;;;28.15;19.48;;;;;;;0.27;73.81;99852.69;5095444;28;20412;-48
2021/12/13 01:58:18;;;;;;;31.08;20.48;;;;;;;0.41;73.64;99855.13;5095417;28;20197;-48
2021/12/13 02:01:09;;;;;;;31.90;20.52;;;;;;;0.43;73.68;99863.59;5095323;28;20035;-49
2021/12/13 02:04:00;;;;;;;46.17;28.58;;;;;;;0.37;73.66;99864.84;5095129;28;20024;-49
2021/12/13 02:06:39;;;;;;;32.63;18.33;;;;;;;0.44;73.30;99862.66;5095082;28;20035;-48
2021/12/13 02:09:17;;;;;;;31.15;19.63;;;;;;;0.28;72.95;99857.75;5095153;28;20085;-48
2021/12/13 02:11:46;;;;;;;28.38;18.58;;;;;;;0.16;72.63;99853.41;5095139;28;20032;-49
2021/12/13 02:14:20;;;;;;;28.95;20.13;;;;;;;0.25;73.73;99850.22;5093713;28;20024;-48
2021/12/13 02:17:12;;;;;;;29.65;21.08;;;;;;;0.18;73.54;99852.41;5095030;28;20035;-49
2021/12/13 02:19:59;;;;;;;29.40;22.15;;;;;;;0.19;73.83;99854.03;5094984;28;20370;-49
2021/12/13 02:22:37;;;;;;;37.25;26.92;;;;;;;0.27;74.18;99847.53;5094876;28;20028;-48
2021/12/13 02:25:15;;;;;;;29.30;18.63;;;;;;;0.43;73.59;99855.03;5094818;28;20107;-48
2021/12/13 02:27:45;;;;;;;29.25;22.23;;;;;;;0.56;74.00;99854.09;5094682;28;20048;-48
2021/12/13 02:30:24;;;;;;;27.92;18.00;;;;;;;0.57;73.53;99857.50;5093487;28;20501;-48
2021/12/13 02:32:50;;;;;;;22.98;16.02;;;;;;;0.58;72.71;99852.22;5094764;28;20032;-49
2021/12/13 02:35:19;;;;;;;23.05;15.88;;;;;;;0.58;73.02;99849.63;5094673;28;20500;-50
2021/12/13 02:37:45;;;;;;;26.13;17.88;;;;;;;0.56;73.07;99856.66;5094633;28;20106;-49
2021/12/13 02:40:13;;;;;;;26.48;16.92;;;;;;;0.58;72.83;99856.53;5094585;28;20020;-48
2021/12/13 02:42:39;;;;;;;29.35;17.65;;;;;;;0.50;73.17;99849.31;5093247;28;20024;-49
2021/12/13 02:45:32;;;;;;;24.85;17.10;;;;;;;0.42;72.82;99854.19;5094422;28;20197;-48
2021/12/13 02:48:09;;;;;;;25.73;16.08;;;;;;;0.36;72.95;99859.78;5086438;28;20035;-48
2021/12/13 02:50:52;;;;;;;31.30;17.80;;;;;;;0.26;72.42;99854.44;5094505;28;20028;-49
2021/12/13 02:53:26;;;;;;;23.17;15.77;;;;;;;0.17;72.60;99861.06;5093116;28;20039;-48
2021/12/13 02:55:52;;;;;;;23.38;15.70;;;;;;;0.12;73.13;99865.72;5094225;28;20024;-47
2021/12/13 02:58:22;;;;;;;25.10;15.88;;;;;;;0.13;73.11;99863.97;5094252;28;20495;-49
2021/12/13 03:00:55;;;;;;;23.65;16.63;;;;;;;0.18;73.36;99867.03;5094086;28;20016;-48
2021/12/13 03:03:25;;;;;;;23.65;14.98;;;;;;;0.15;73.29;99855.16;5094262;28;20107;-51
2021/12/13 03:05:54;;;;;;;26.10;17.20;;;;;;;0.11;73.34;99858.88;5092767;28;20481;-50
2021/12/13 03:08:28;;;;;;;22.40;15.70;;;;;;;0.06;73.34;99852.38;5094262;28;20106;-49
2021/12/13 03:10:59;;;;;;;31.50;17.27;;;;;;;-0.02;73.74;99846.00;5093992;28;20051;-48
2021/12/13 03:13:26;;;;;;;24.23;16.63;;;;;;;-0.08;74.39;99850.72;5092669;28;20089;-51
2021/12/13 03:16:02;;;;;;;26.30;17.35;;;;;;;-0.13;73.92;99855.41;5093797;28;20549;-50
2021/12/13 03:18:48;;;;;;;26.30;16.45;;;;;;;-0.14;74.08;99845.97;5092581;28;20490;-49
2021/12/13 03:21:14;;;;;;;26.58;17.38;;;;;;;0.00;74.95;99848.50;5092481;28;20039;-48
2021/12/13 03:24:18;;;;;;;29.35;21.13;;;;;;;-0.02;74.47;99842.56;5093677;28;20028;-48
2021/12/13 03:27:01;;;;;;;51.63;37.58;;;;;;;-0.13;74.71;99830.41;5093367;28;20051;-49
2021/12/13 03:29:34;;;;;;;29.60;19.60;;;;;;;-0.03;74.00;99830.63;5093629;28;20091;-49
2021/12/13 03:32:00;;;;;;;27.13;20.50;;;;;;;-0.01;74.60;99819.25;5093533;28;20032;-49
2021/12/13 03:34:30;;;;;;;27.52;20.38;;;;;;;-0.07;74.46;99826.59;5093533;28;20021;-48
2021/12/13 03:37:08;;;;;;;28.73;19.70;;;;;;;-0.25;74.95;99826.91;5093386;28;20043;-48
2021/12/13 03:39:45;;;;;;;28.02;20.90;;;;;;;-0.36;75.44;99833.69;5093517;28;20416;-49
2021/12/13 03:42:18;;;;;;;28.70;21.27;;;;;;;-0.44;74.97;99824.72;5093446;28;20036;-49
2021/12/13 03:44:48;;;;;;;29.27;20.35;;;;;;;-0.43;75.52;99833.28;5093330;28;20398;-48
2021/12/13 03:47:27;;;;;;;32.25;19.25;;;;;;;-0.50;75.86;99834.63;5093147;28;20111;-48
2021/12/13 03:49:57;;;;;;;28.08;19.05;;;;;;;-0.38;76.26;99836.41;5091900;28;20567;-48
2021/12/13 03:52:25;;;;;;;26.92;17.95;;;;;;;-0.26;75.75;99832.19;5093163;28;20078;-48
2021/12/13 03:54:55;;;;;;;25.83;17.83;;;;;;;-0.23;75.74;99840.53;5091739;28;20047;-49
2021/12/13 03:57:22;;;;;;;38.67;29.80;;;;;;;-0.29;75.50;99845.28;5093041;28;20028;-47
2021/12/13 03:59:49;;;;;;;51.08;36.05;;;;;;;-0.34;75.38;99843.00;5092928;28;20016;-48
2021/12/13 04:02:21;;;;;;;30.10;21.05;;;;;;;-0.34;75.49;99837.00;5092944;28;20440;-48
2021/12/13 04:04:53;;;;;;;27.60;17.88;;;;;;;-0.37;75.79;99835.47;5092985;28;20107;-49
2021/12/13 04:07:29;;;;;;;27.20;19.38;;;;;;;-0.34;75.50;99822.38;5092256;28;20145;-48
2021/12/13 04:09:57;;;;;;;30.98;20.02;;;;;;;-0.27;75.25;99822.78;5092867;28;20533;-48
2021/12/13 04:12:36;;;;;;;34.90;24.90;;;;;;;-0.09;75.30;99820.72;5093062;28;20498;-48
2021/12/13 04:15:38;;;;;;;24.55;17.48;;;;;;;0.06;75.39;99827.44;5091384;28;20085;-49
2021/12/13 04:18:28;;;;;;;23.75;14.93;;;;;;;0.14;74.07;99835.47;5092775;28;20050;-48
2021/12/13 04:21:05;;;;;;;23.52;16.48;;;;;;;0.06;73.65;99830.00;5092494;28;20055;-49
2021/12/13 04:23:33;;;;;;;23.98;16.75;;;;;;;0.06;74.49;99835.16;5092643;28;20028;-49
2021/12/13 04:26:02;;;;;;;22.85;17.25;;;;;;;0.15;74.15;99823.38;5092250;28;20585;-49
2021/12/13 04:28:44;;;;;;;21.65;16.13;;;;;;;0.21;74.28;99828.13;5092468;28;20032;-48
2021/12/13 04:31:14;;;;;;;35.00;23.50;;;;;;;0.23;73.99;99818.50;5092550;28;20485;-48
2021/12/13 04:33:44;;;;;;;25.58;19.67;;;;;;;0.08;73.53;99824.72;5092453;28;20027;-49
2021/12/13 04:36:19;;;;;;;25.02;18.80;;;;;;;-0.10;73.89;99822.47;5092446;28;20032;-48
2021/12/13 04:39:32;;;;;;;29.15;19.40;;;;;;;-0.11;74.74;99820.00;5092382;28;20062;-48
2021/12/13 04:42:10;;;;;;;26.80;17.83;;;;;;;-0.08;74.94;99817.19;5064277;28;20075;-50
2021/12/13 04:44:50;;;;;;;28.35;18.63;;;;;;;-0.21;74.85;99815.44;5092297;28;20024;-48
2021/12/13 04:47:27;;;;;;;28.20;19.40;;;;;;;-0.26;75.39;99819.28;5092183;28;20530;-48
2021/12/13 04:50:13;;;;;;;27.23;19.08;;;;;;;-0.28;75.79;99816.81;5092196;28;20020;-49
2021/12/13 04:52:41;;;;;;;41.88;19.15;;;;;;;-0.19;75.66;99817.09;5092116;28;20493;-50
2021/12/13 04:55:14;;;;;;;26.75;16.08;;;;;;;0.01;75.45;99824.31;5092024;28;20024;-49
2021/12/13 04:57:41;;;;;;;22.60;16.20;;;;;;;0.05;75.22;99823.19;5092179;28;20020;-48
2021/12/13 05:00:15;;;;;;;25.60;17.15;;;;;;;0.10;74.08;99823.69;5091965;28;20016;-48
2021/12/13 05:02:48;;;;;;;28.80;16.38;;;;;;;0.12;74.65;99827.00;5090908;28;20024;-48
2021/12/13 05:05:16;;;;;;;27.60;18.70;;;;;;;0.19;75.04;99825.63;5091968;28;20024;-48
2021/12/13 05:07:44;;;;;;;23.15;16.02;;;;;;;0.35;74.61;99816.84;5090556;28;20085;-47
2021/12/13 05:10:12;;;;;;;23.40;16.13;;;;;;;0.41;74.31;99816.41;5091918;28;20016;-48
2021/12/13 05:12:39;;;;;;;25.90;15.48;;;;;;;0.47;73.05;99818.56;5091904;28;20020;-50
2021/12/13 05:15:10;;;;;;;26.08;15.55;;;;;;;0.44;73.57;99817.94;5091827;28;20017;-48
2021/12/13 05:17:38;;;;;;;24.80;16.60;;;;;;;0.44;73.43;99818.75;5091887;28;20448;-48
2021/12/13 05:20:26;;;;;;;29.08;18.27;;;;;;;0.47;73.39;99822.91;5095862;28;20020;-48
2021/12/13 05:23:04;;;;;;;24.30;17.27;;;;;;;0.44;72.50;99820.53;5096112;28;20046;-48
2021/12/13 05:25:32;;;;;;;27.13;16.58;;;;;;;0.38;72.29;99817.44;5095785;28;20515;-48
2021/12/13 05:28:18;;;;;;;25.20;16.83;;;;;;;0.35;72.95;99817.66;5095842;28;20489;-48
2021/12/13 05:30:58;;;;;;;24.13;14.50;;;;;;;0.21;72.06;99817.78;5094664;28;20402;-48
2021/12/13 05:33:28;;;;;;;28.70;17.80;;;;;;;0.03;72.57;99821.63;5095889;28;20604;-49
2021/12/13 05:35:57;;;;;;;24.80;16.30;;;;;;;-0.12;73.43;99815.75;5095729;28;20020;-48
2021/12/13 05:38:46;;;;;;;21.92;14.45;;;;;;;-0.23;73.83;99817.31;5094446;28;20445;-49
2021/12/13 05:41:27;;;;;;;25.23;17.08;;;;;;;-0.27;73.71;99815.84;5094440;28;20106;-49
2021/12/13 05:43:59;;;;;;;23.00;15.35;;;;;;;-0.33;73.62;99813.69;5095690;28;20028;-48
2021/12/13 05:46:37;;;;;;;25.95;17.00;;;;;;;-0.44;74.39;99809.25;5095449;28;20086;-49
2021/12/13 05:49:09;;;;;;;24.88;17.42;;;;;;;-0.37;75.18;99808.84;5095480;28;20020;-48
2021/12/13 05:51:41;;;;;;;30.08;17.45;;;;;;;-0.10;75.44;99811.31;5095600;28;20570;-49
2021/12/13 05:54:14;;;;;;;26.55;20.13;;;;;;;0.01;74.25;99819.16;5095472;28;20066;-48
2021/12/13 05:56:44;;;;;;;27.13;18.35;;;;;;;-0.01;74.33;99808.13;5095440;28;20024;-49
2021/12/13 05:59:10;;;;;;;25.10;17.88;;;;;;;-0.13;73.71;99811.53;5094034;28;20161;-48
2021/12/13 06:01:56;;;;;;;26.08;17.27;;;;;;;-0.23;74.36;99814.72;5095301;28;20107;-48
2021/12/13 06:04:32;;;;;;;32.53;17.73;;;;;;;-0.09;74.30;99815.56;5093976;28;20024;-48
2021/12/13 06:06:59;;;;;;;24.60;16.42;;;;;;;-0.02;74.10;99817.63;5095129;28;20032;-48
2021/12/13 06:09:54;;;;;;;30.23;18.60;;;;;;;-0.08;74.22;99823.19;5095154;28;20024;-49
2021/12/13 06:12:40;;;;;;;28.60;17.58;;;;;;;-0.07;73.79;99824.84;5095134;28;20085;-49
2021/12/13 06:15:15;;;;;;;;;;;;;;;-0.10;74.14;99826.78;5095496;28;20039;-50
2021/12/13 06:17:46;;;;;;;23.67;15.75;;;;;;;0.29;74.46;99822.44;5095109;28;19912;-48
2021/12/13 06:20:19;;;;;;;29.60;16.77;;;;;;;0.50;73.35;99831.25;5095030;28;20024;-48
2021/12/13 06:22:46;;;;;;;27.30;17.80;;;;;;;0.64;73.39;99826.88;5094941;28;20039;-49
2021/12/13 06:25:18;;;;;;;37.25;19.65;;;;;;;0.68;72.28;99825.72;5093549;28;20102;-48
2021/12/13 06:27:54;;;;;;;32.55;16.55;;;;;;;0.71;71.93;99825.53;5094620;28;20040;-49
2021/12/13 06:30:26;;;;;;;25.92;16.15;;;;;;;0.56;71.97;99832.56;5094372;28;20440;-49
2021/12/13 06:33:00;;;;;;;28.02;16.33;;;;;;;0.36;72.03;99833.97;5094751;28;20393;-48
2021/12/13 06:35:49;;;;;;;29.52;17.15;;;;;;;0.19;72.53;99842.88;5093366;28;20125;-51
2021/12/13 06:38:21;;;;;;;29.15;17.45;;;;;;;0.11;71.94;99835.66;5094658;28;20012;-48
2021/12/13 06:40:56;;;;;;;24.95;17.55;;;;;;;0.04;72.15;99837.03;5093243;28;20024;-49
2021/12/13 06:43:39;;;;;;;31.38;18.02;;;;;;;0.01;72.60;99836.41;5094636;28;20053;-47
2021/12/13 06:46:27;;;;;;;29.63;17.48;;;;;;;0.01;73.02;99839.81;5094546;28;20028;-48
2021/12/13 06:49:05;;;;;;;23.55;16.80;;;;;;;-0.03;72.47;99844.34;5094496;28;20089;-48
2021/12/13 06:51:40;;;;;;;28.70;18.00;;;;;;;-0.14;72.60;99840.81;5094362;28;20039;-49
2021/12/13 06:54:09;;;;;;;22.90;16.17;;;;;;;-0.17;72.65;99849.59;5094380;28;20397;-48
2021/12/13 06:56:37;;;;;;;23.85;17.35;;;;;;;-0.17;72.73;99843.63;5094273;28;20047;-48
2021/12/13 06:59:07;;;;;;;29.27;17.65;;;;;;;-0.23;72.99;99843.09;5092899;28;20027;-48
2021/12/13 07:01:35;;;;;;;20.38;14.70;;;;;;;-0.27;73.03;99849.38;5094128;28;20027;-48
2021/12/13 07:04:07;;;;;;;24.90;16.15;;;;;;;-0.32;73.11;99848.88;5092801;28;20020;-48
2021/12/13 07:06:33;;;;;;;26.90;17.23;;;;;;;-0.34;73.47;99847.31;5094014;28;20095;-48
2021/12/13 07:09:11;;;;;;;27.38;16.77;;;;;;;-0.41;73.29;99847.72;5094005;28;20078;-49
2021/12/13 07:11:53;;;;;;;27.98;17.38;;;;;;;-0.45;73.76;99843.69;5094021;28;20028;-48
2021/12/13 07:14:36;;;;;;;36.95;19.42;;;;;;;-0.39;74.26;99854.56;5093976;28;20027;-49
2021/12/13 07:17:12;;;;;;;26.25;17.77;;;;;;;-0.33;74.27;99856.72;5093963;28;20097;-48
2021/12/13 07:19:41;;;;;;;30.65;18.15;;;;;;;-0.25;73.84;99857.03;5093908;28;20409;-48
2021/12/13 07:22:08;;;;;;;27.20;17.95;;;;;;;-0.16;73.37;99855.59;5093706;28;20524;-48
2021/12/13 07:24:43;;;;;;;33.67;18.02;;;;;;;0.03;74.04;99860.34;5093731;28;20028;-48
2021/12/13 07:27:11;;;;;;;28.73;18.25;;;;;;;0.22;73.82;99863.31;5093442;28;20044;-50
2021/12/13 07:29:54;;;;;;;26.05;17.35;;;;;;;0.53;73.02;99854.28;5093644;28;20024;-49
2021/12/13 07:32:32;;;;;;;31.85;22.48;;;;;;;0.92;72.75;99862.72;5092244;28;20024;-48
2021/12/13 07:35:06;;;;;;;25.05;17.20;;;;;;;1.45;72.23;99867.56;5092239;28;20024;-48
2021/12/13 07:37:46;;;;;;;30.83;18.90;;;;;;;1.97;70.73;99857.66;5093568;28;20066;-50
2021/12/13 07:40:26;;;;;;;24.35;17.08;;;;;;;2.31;69.42;99860.28;5093296;28;20017;-51
2021/12/13 07:43:06;;;;;;;27.42;17.63;;;;;;;2.72;68.92;99859.66;5093108;28;20396;-49
2021/12/13 07:45:45;;;;;;;27.90;18.00;;;;;;;3.05;67.69;99860.50;5092130;28;20044;-49
2021/12/13 07:48:19;;;;;;;26.45;18.38;;;;;;;2.91;66.18;99863.38;5093311;28;20028;-48
2021/12/13 07:50:56;;;;;;;26.02;19.25;;;;;;;2.69;66.58;99859.88;5091971;28;20123;-50
2021/12/13 07:53:21;;;;;;;27.92;19.52;;;;;;;2.72;67.88;99866.59;5093351;28;20032;-49
2021/12/13 07:55:49;;;;;;;30.05;18.92;;;;;;;2.68;68.44;99862.63;5093087;28;20030;-49
2021/12/13 07:58:35;;;;;;;29.05;19.58;;;;;;;2.48;68.96;99875.34;5093086;28;20032;-48
2021/12/13 08:04:12;;;;;;;37.47;27.20;;;;;;;2.10;69.47;99858.38;5092896;28;19950;-48
2021/12/13 08:06:48;;;;;;;586.53;346.85;;;;;;;2.10;69.82;99860.97;5092909;28;20060;-48
2021/12/13 08:09:18;;;;;;;60.15;38.53;;;;;;;2.23;70.13;99866.03;5092971;28;20530;-48
2021/12/13 08:11:53;;;;;;;64.80;47.85;;;;;;;2.26;68.43;99857.22;5092857;28;20028;-49
2021/12/13 08:14:33;;;;;;;50.88;34.40;;;;;;;2.35;69.18;99867.69;5091585;28;20034;-48
2021/12/13 08:17:17;;;;;;;51.92;37.50;;;;;;;2.38;68.76;99866.63;5092709;28;20066;-50
2021/12/13 08:19:51;;;;;;;70.93;50.65;;;;;;;3.07;69.44;99863.78;5092999;28;20471;-51
2021/12/13 08:22:55;;;;;;;40.88;31.75;;;;;;;4.09;66.27;99855.47;5092748;28;20016;-51
2021/12/13 08:25:37;;;;;;;25.52;18.25;;;;;;;4.76;63.74;99856.66;5092554;28;20035;-49
2021/12/13 08:28:10;;;;;;;24.45;18.02;;;;;;;4.71;61.51;99857.06;5092512;28;20074;-49
2021/12/13 08:30:51;;;;;;;27.05;18.50;;;;;;;4.59;60.87;99852.94;5091399;28;20421;-49
2021/12/13 08:33:26;;;;;;;25.33;18.27;;;;;;;4.50;61.45;99853.72;5092730;28;20520;-49
2021/12/13 08:35:57;;;;;;;25.85;17.27;;;;;;;4.72;61.87;99863.09;5092471;28;20020;-49
2021/12/13 08:38:47;;;;;;;25.35;16.33;;;;;;;5.43;62.29;99862.03;5092430;28;20081;-51
2021/12/13 08:41:15;;;;;;;25.08;17.13;;;;;;;6.42;61.49;99862.53;5092307;28;20516;-49
2021/12/13 08:43:48;;;;;;;32.72;18.10;;;;;;;7.06;60.98;99863.38;5090924;28;20398;-49
2021/12/13 08:46:31;;;;;;;24.02;17.83;;;;;;;7.47;56.54;99850.69;5092266;28;20027;-50
2021/12/13 08:48:57;;;;;;;26.60;18.25;;;;;;;7.59;55.71;99862.53;5092166;28;20028;-50
2021/12/13 08:51:26;;;;;;;23.48;15.95;;;;;;;8.00;56.21;99862.78;5090811;28;20477;-50
2021/12/13 08:54:08;;;;;;;22.58;16.55;;;;;;;8.67;54.56;99856.09;5091991;28;20030;-50
2021/12/13 08:56:42;;;;;;;22.13;17.00;;;;;;;9.02;53.07;99857.66;5090915;28;20112;-50
2021/12/13 08:59:24;;;;;;;29.70;17.65;;;;;;;9.51;52.95;99860.31;5090762;28;20043;-49
2021/12/13 09:01:57;;;;;;;26.60;20.40;;;;;;;9.99;50.63;99860.44;5092028;28;20481;-49
2021/12/13 09:04:29;;;;;;;75.03;55.35;;;;;;;10.46;49.76;99864.88;5092068;28;20032;-49
2021/12/13 09:07:00;;;;;;;38.90;26.40;;;;;;;10.56;48.70;99862.06;5091898;28;20039;-50
2021/12/13 09:09:27;;;;;;;28.35;20.25;;;;;;;10.94;48.36;99862.19;5090657;28;20062;-49
2021/12/13 09:11:59;;;;;;;26.40;19.63;;;;;;;11.54;48.65;99873.75;5091955;28;20467;-52
2021/12/13 09:14:38;;;;;;;30.23;18.60;;;;;;;12.06;46.00;99859.03;5091891;28;20031;-49
2021/12/13 09:17:31;;;;;;;25.10;18.95;;;;;;;12.30;43.53;99869.28;5091916;28;20099;-49
2021/12/13 09:20:23;;;;;;;28.80;19.42;;;;;;;12.24;45.14;99864.72;5091878;28;20042;-50
2021/12/13 09:23:27;;;;;;;27.95;18.60;;;;;;;12.89;44.26;99863.06;5091940;28;20438;-50
2021/12/13 09:26:16;;;;;;;22.15;17.85;;;;;;;13.18;42.78;99867.44;5091520;28;20101;-49
2021/12/13 09:28:53;;;;;;;24.33;17.58;;;;;;;13.21;42.16;99868.88;5090439;28;20464;-50
2021/12/13 09:31:40;;;;;;;20.40;16.80;;;;;;;13.13;42.84;99866.38;5090413;28;20657;-50
2021/12/13 09:34:16;;;;;;;22.30;17.38;;;;;;;13.58;41.90;99867.00;5091790;28;20035;-49
2021/12/13 09:36:46;;;;;;;22.95;16.48;;;;;;;13.94;41.34;99863.41;5090413;28;20020;-49
2021/12/13 09:39:20;;;;;;;21.05;17.67;;;;;;;14.10;40.36;99876.31;5091697;28;20028;-50
2021/12/13 09:41:48;;;;;;;20.70;17.23;;;;;;;14.26;40.10;99871.72;5091608;28;20124;-50
2021/12/13 09:44:30;;;;;;;20.42;16.88;;;;;;;14.33;39.12;99867.31;5091632;28;20066;-50
2021/12/13 09:47:00;;;;;;;22.80;17.02;;;;;;;14.36;38.37;99875.63;5091518;28;20473;-49
2021/12/13 09:49:49;;;;;;;20.45;18.10;;;;;;;14.23;38.04;99872.13;5091529;28;20056;-49
2021/12/13 09:52:24;;;;;;;21.55;17.48;;;;;;;14.26;37.88;99864.63;5091080;28;20498;-50
2021/12/13 09:54:55;;;;;;;23.65;17.70;;;;;;;14.25;38.06;99870.13;5091622;28;20674;-50
2021/12/13 09:57:29;;;;;;;22.80;17.83;;;;;;;14.25;37.27;99873.56;5091368;28;20536;-49
2021/12/13 09:59:56;;;;;;;22.90;18.73;;;;;;;14.14;37.64;99877.53;5091608;28;20067;-50
2021/12/13 10:02:32;;;;;;;23.95;17.42;;;;;;;14.19;37.52;99866.41;5090151;28;20439;-49
2021/12/13 10:04:58;;;;;;;22.70;18.58;;;;;;;14.55;37.70;99868.03;5093423;28;20058;-50
2021/12/13 10:07:30;;;;;;;25.67;18.70;;;;;;;14.84;37.09;99863.47;5095122;28;20055;-49
2021/12/13 10:10:01;;;;;;;24.48;18.02;;;;;;;15.06;36.42;99859.66;5095271;28;20449;-50
2021/12/13 10:12:39;;;;;;;23.25;16.67;;;;;;;15.37;36.39;99851.16;5093905;28;20024;-50
2021/12/13 10:15:18;;;;;;;17.20;15.50;;;;;;;15.48;35.20;99846.28;5095192;28;20031;-50
2021/12/13 10:17:48;;;;;;;18.23;15.60;;;;;;;15.70;35.92;99837.09;5095129;28;20028;-50
2021/12/13 10:20:32;;;;;;;20.17;16.38;;;;;;;15.81;35.09;99837.53;5093677;28;20036;-50
2021/12/13 10:22:58;;;;;;;21.08;16.98;;;;;;;15.81;33.91;99846.28;5093690;28;20035;-50
2021/12/13 10:25:34;;;;;;;18.48;16.52;;;;;;;15.67;34.86;99837.50;5094643;28;20024;-50
2021/12/13 10:28:02;;;;;;;22.98;16.38;;;;;;;15.66;35.23;99843.03;5093520;28;20020;-50
2021/12/13 10:30:34;;;;;;;26.70;18.02;;;;;;;15.65;35.82;99839.53;5094722;28;20562;-50
2021/12/13 10:33:02;;;;;;;22.60;16.48;;;;;;;15.80;36.29;99833.28;5093493;28;20034;-51
2021/12/13 10:35:33;;;;;;;21.38;16.77;;;;;;;15.84;36.38;99837.94;5094681;28;20413;-49
2021/12/13 10:38:08;;;;;;;22.17;16.73;;;;;;;15.89;36.51;99832.00;5094712;28;20482;-50
2021/12/13 10:40:42;;;;;;;22.98;17.60;;;;;;;15.93;36.58;99828.75;5093384;28;20063;-50
2021/12/13 10:43:13;;;;;;;23.98;16.52;;;;;;;15.53;36.79;99826.13;5094664;28;20468;-50
2021/12/13 10:46:02;;;;;;;18.38;16.48;;;;;;;15.11;37.87;99820.22;5093229;28;20115;-50
2021/12/13 10:48:32;;;;;;;20.38;15.27;;;;;;;15.15;38.13;99815.31;5094392;28;20077;-50
2021/12/13 10:51:10;;;;;;;22.42;18.17;;;;;;;15.46;37.51;99808.63;5093135;28;20032;-50
2021/12/13 10:53:39;;;;;;;20.45;18.25;;;;;;;16.07;36.22;99802.25;5094422;28;20034;-50
2021/12/13 10:56:22;;;;;;;24.77;19.13;;;;;;;16.33;36.03;99794.19;5094261;28;20077;-50
2021/12/13 10:58:52;;;;;;;26.10;20.38;;;;;;;16.51;35.41;99790.03;5093021;28;20034;-49
2021/12/13 11:01:26;;;;;;;21.48;17.45;;;;;;;16.48;35.58;99787.78;5094179;28;20035;-49
2021/12/13 11:03:55;;;;;;;21.97;17.80;;;;;;;16.60;35.54;99791.44;5094183;28;20090;-50
2021/12/13 11:06:22;;;;;;;18.80;16.80;;;;;;;16.63;34.43;99782.22;5094100;28;20269;-50
2021/12/13 11:08:49;;;;;;;18.42;15.80;;;;;;;16.58;35.03;99782.88;5094055;28;20093;-50
2021/12/13 11:11:39;;;;;;;16.75;13.73;;;;;;;16.42;35.20;99778.88;5093994;28;20020;-51
2021/12/13 11:14:09;;;;;;;17.85;13.70;;;;;;;16.28;35.33;99780.78;5094038;28;20032;-50
2021/12/13 11:16:43;;;;;;;16.52;12.60;;;;;;;16.22;35.56;99773.66;5092747;28;20111;-50
2021/12/13 11:19:14;;;;;;;22.10;14.13;;;;;;;16.31;35.42;99774.25;5093893;28;20035;-50
2021/12/13 11:21:43;;;;;;;14.07;11.68;;;;;;;16.07;35.76;99784.50;5092529;28;20035;-50
2021/12/13 11:24:15;;;;;;;14.52;12.95;;;;;;;16.01;35.98;99774.75;5093804;28;20028;-50
2021/12/13 11:26:43;;;;;;;14.05;12.63;;;;;;;15.88;35.92;99777.47;5093444;28;20040;-50
2021/12/13 11:29:11;;;;;;;16.33;12.40;;;;;;;15.70;35.83;99773.59;5093761;28;20056;-48
2021/12/13 11:31:55;;;;;;;17.00;13.88;;;;;;;15.30;36.57;99765.69;5093959;28;20024;-50
2021/12/13 11:34:52;;;;;;;18.75;13.35;;;;;;;14.69;37.33;99765.84;5093547;28;20099;-50
2021/12/13 11:37:55;;;;;;;15.32;13.60;;;;;;;14.41;38.54;99763.31;5061714;28;20047;-50
2021/12/13 11:40:55;;;;;;;21.92;15.00;;;;;;;14.24;38.84;99763.66;5093466;28;20435;-50
2021/12/13 11:43:39;;;;;;;17.77;14.00;;;;;;;14.11;39.21;99763.63;5092059;28;20031;-50
2021/12/13 11:46:28;;;;;;;18.00;14.95;;;;;;;14.22;39.00;99760.41;5092009;28;20181;-51
2021/12/13 11:49:41;;;;;;;17.33;14.95;;;;;;;14.74;38.77;99751.03;5093309;28;20027;-50
2021/12/13 11:52:16;;;;;;;17.80;14.80;;;;;;;15.18;38.03;99748.81;5087626;28;20032;-49
2021/12/13 11:55:19;;;;;;;21.13;14.40;;;;;;;15.26;38.18;99742.53;5093241;28;20027;-50
2021/12/13 11:58:32;;;;;;;18.65;16.70;;;;;;;15.41;37.55;99745.75;5093151;28;20081;-50
2021/12/13 12:01:14;;;;;;;20.83;15.90;;;;;;;15.26;37.27;99748.63;5014015;28;20044;-50
2021/12/13 12:04:07;;;;;;;19.60;14.77;;;;;;;15.06;38.26;99740.69;5030750;28;20037;-51
2021/12/13 12:07:07;;;;;;;17.75;15.93;;;;;;;15.04;37.81;99739.28;5014021;28;20036;-49
2021/12/13 12:10:14;;;;;;;20.90;15.93;;;;;;;14.96;38.34;99737.63;5013920;28;20022;-50